This is the latest recevied weather packets stored in our database for station/object MARKET. If no packets are shown the sender has not sent any weather packets the latest 10 day(s).
| Time | Temp. | Humidity | Pressure | Rain* | Wind** | Luminosity | Snow |
|---|---|---|---|---|---|---|---|
| 1777727229 | 15° C | 43% | 1008.4 hPa | - | - | - | - |
| 1777726029 | 15.56° C | 40% | 1008.5 hPa | - | - | - | - |
| 1777724829 | 14.44° C | 40% | 1008.9 hPa | - | - | - | - |
| 1777723629 | 12.22° C | 52% | 1009.2 hPa | - | - | - | - |
| 1777722429 | 13.33° C | 46% | 1009.3 hPa | - | - | - | - |
| 1777721229 | 13.33° C | 45% | 1009.5 hPa | - | - | - | - |
| 1777720029 | 13.33° C | 46% | 1009.8 hPa | - | - | - | - |
| 1777718828 | 12.78° C | 49% | 1010 hPa | - | - | - | - |
| 1777717629 | 12.22° C | 53% | 1010.2 hPa | - | - | - | - |
| 1777716429 | 12.22° C | 50% | 1010.3 hPa | - | - | - | - |
| 1777715228 | 12.22° C | 49% | 1010.5 hPa | - | - | - | - |
| 1777714028 | 12.78° C | 48% | 1010.6 hPa | - | - | - | - |
| 1777712828 | 10° C | 60% | 1010.7 hPa | - | - | - | - |
| 1777711628 | 11.11° C | 56% | 1010.9 hPa | - | - | - | - |
| 1777710428 | 10.56° C | 58% | 1011.2 hPa | - | - | - | - |
| 1777709228 | 10.56° C | 57% | 1011.3 hPa | - | - | - | - |
| 1777708028 | 10.56° C | 58% | 1011.3 hPa | - | - | - | - |
| 1777706828 | 10.56° C | 55% | 1011.2 hPa | - | - | - | - |
| 1777705628 | 10° C | 59% | 1011.3 hPa | - | - | - | - |
| 1777704427 | 8.89° C | 65% | 1011.5 hPa | - | - | - | - |
| 1777703228 | 8.89° C | 65% | 1011.5 hPa | - | - | - | - |
| 1777702028 | 8.89° C | 64% | 1011.4 hPa | - | - | - | - |
| 1777700828 | 8.89° C | 63% | 1011.4 hPa | - | - | - | - |
| 1777699627 | 8.89° C | 64% | 1011.4 hPa | - | - | - | - |
| 1777698428 | 8.33° C | 67% | 1011.6 hPa | - | - | - | - |
* Rain since midnight (hover to see other rain measurements)
** Current wind speed in m/s (hover to see current wind gust speed)